Time;durP1;ratioP1;P1;durP2;ratioP2;P2;SDS_P1;SDS_P2;PMS_P1;PMS_P2;Temp;Humidity;BMP_temperature;BMP_pressure;BME280_temperature;BME280_humidity;BME280_pressure;Samples;Min_cycle;Max_cycle;Signal;HPM_P1;HPM_P2
2022/03/31 00:00:54;;;;;;;1.63;1.10;;;;;11.70;100120.00;;;;4981084;28;20284;-75
2022/03/31 00:03:22;;;;;;;1.20;0.95;;;;;11.70;100110.00;;;;4971734;28;20198;-74
2022/03/31 00:05:50;;;;;;;0.70;0.60;;;;;11.60;100112.00;;;;4971484;28;20317;-74
2022/03/31 00:08:20;;;;;;;1.48;0.57;;;;;11.50;100118.00;;;;4970214;28;20186;-74
2022/03/31 00:10:50;;;;;;;0.95;0.70;;;;;11.50;100115.00;;;;4970380;28;20195;-74
2022/03/31 00:13:20;;;;;;;1.40;0.77;;;;;11.40;100109.00;;;;4985542;28;20288;-74
2022/03/31 00:15:47;;;;;;;1.00;0.77;;;;;11.30;100119.00;;;;4968111;28;20245;-73
2022/03/31 00:18:17;;;;;;;1.13;0.80;;;;;11.20;100109.00;;;;4966220;28;20684;-74
2022/03/31 00:34:17;;;;;;;0.50;0.30;;;;;10.70;100108.00;;;;4971369;28;20198;-74
2022/03/31 00:36:44;;;;;;;0.40;0.30;;;;;10.70;100103.00;;;;4970528;28;20198;-75
2022/03/31 00:39:31;;;;;;;0.43;0.30;;;;;10.60;100109.00;;;;4970099;28;20285;-74
2022/03/31 00:42:00;;;;;;;0.30;0.20;;;;;10.50;100098.00;;;;4970856;28;20853;-74
2022/03/31 00:44:28;;;;;;;0.17;0.13;;;;;10.50;100094.00;;;;4970560;28;20675;-74
2022/03/31 00:46:56;;;;;;;1.77;0.30;;;;;10.40;100088.00;;;;4982975;28;20225;-74
2022/03/31 00:49:26;;;;;;;0.50;0.30;;;;;10.40;100093.00;;;;4989985;28;20194;-74
2022/03/31 00:51:55;;;;;;;0.40;0.30;;;;;10.30;100081.00;;;;4974379;28;20230;-74
2022/03/31 00:54:26;;;;;;;0.55;0.30;;;;;10.30;100082.00;;;;4970730;28;20257;-74
2022/03/31 00:56:54;;;;;;;1.17;0.45;;;;;10.20;100081.00;;;;4970616;28;20202;-74
2022/03/31 00:59:22;;;;;;;0.20;0.10;;;;;10.10;100081.00;;;;4970770;28;20628;-74
2022/03/31 01:01:51;;;;;;;0.30;0.30;;;;;10.10;100078.00;;;;4969772;28;20249;-74
2022/03/31 01:04:19;;;;;;;0.50;0.22;;;;;10.00;100075.00;;;;4985982;28;20627;-74
2022/03/31 01:06:49;;;;;;;0.30;0.20;;;;;10.00;100079.00;;;;4975535;28;20273;-74
2022/03/31 01:09:18;;;;;;;0.68;0.20;;;;;10.00;100073.00;;;;4969263;28;20202;-74
2022/03/31 01:11:46;;;;;;;0.43;0.20;;;;;9.90;100066.00;;;;4969422;28;20206;-74
2022/03/31 01:14:14;;;;;;;0.50;0.30;;;;;9.90;100056.00;;;;4969606;28;20279;-74
2022/03/31 01:16:42;;;;;;;0.70;0.47;;;;;9.90;100053.00;;;;4970111;28;20327;-74
2022/03/31 01:19:11;;;;;;;0.25;0.13;;;;;9.80;100052.00;;;;4970390;28;20206;-74
2022/03/31 01:21:39;;;;;;;0.57;0.38;;;;;9.80;100047.00;;;;4973508;28;20220;-74
2022/03/31 01:24:10;;;;;;;0.98;0.30;;;;;9.70;100049.00;;;;4970191;28;20212;-74
2022/03/31 01:26:38;;;;;;;0.20;0.10;;;;;9.70;100045.00;;;;4970291;28;20222;-74
2022/03/31 01:29:05;;;;;;;0.40;0.30;;;;;9.70;100051.00;;;;4969594;28;20289;-74
2022/03/31 01:31:33;;;;;;;0.40;0.20;;;;;9.60;100048.00;;;;4969577;28;20668;-74
2022/03/31 01:34:01;;;;;;;0.52;0.38;;;;;9.60;100049.00;;;;4970137;28;20550;-74
2022/03/31 01:36:28;;;;;;;0.50;0.30;;;;;9.60;100042.00;;;;4968836;28;20206;-74
2022/03/31 01:38:56;;;;;;;0.20;0.13;;;;;9.50;100039.00;;;;4988586;28;20241;-74
2022/03/31 01:41:25;;;;;;;2.72;0.73;;;;;9.50;100041.00;;;;4976460;28;20196;-74
2022/03/31 01:43:53;;;;;;;0.40;0.30;;;;;9.50;100042.00;;;;4969851;28;20214;-73
2022/03/31 01:46:20;;;;;;;0.88;0.20;;;;;9.40;100039.00;;;;4969988;28;20284;-74
2022/03/31 01:48:48;;;;;;;0.43;0.22;;;;;9.40;100038.00;;;;4969990;28;20198;-73
2022/03/31 01:51:15;;;;;;;0.40;0.38;;;;;9.30;100039.00;;;;4969380;28;20206;-73
2022/03/31 01:53:43;;;;;;;0.50;0.30;;;;;9.20;100027.00;;;;4971690;28;20746;-73
2022/03/31 01:56:11;;;;;;;1.90;0.20;;;;;9.20;100023.00;;;;4989236;28;20225;-73
2022/03/31 01:58:42;;;;;;;0.50;0.30;;;;;9.10;100020.00;;;;4989638;28;20205;-74
2022/03/31 02:01:13;;;;;;;0.20;0.15;;;;;9.00;100020.00;;;;4969210;28;20731;-73
2022/03/31 02:03:41;;;;;;;1.02;0.20;;;;;9.00;100010.00;;;;4970454;28;20257;-73
2022/03/31 02:06:09;;;;;;;0.20;0.10;;;;;8.90;100009.00;;;;4969396;28;20218;-75
2022/03/31 02:08:36;;;;;;;0.55;0.20;;;;;8.90;100003.00;;;;4970274;28;20720;-74
2022/03/31 02:11:04;;;;;;;0.20;0.20;;;;;8.90;100002.00;;;;4980935;28;20206;-73
2022/03/31 02:13:31;;;;;;;0.30;0.20;;;;;8.80;99987.00;;;;4995499;28;20244;-74
2022/03/31 02:16:00;;;;;;;0.30;0.20;;;;;8.80;100013.00;;;;4995631;28;20229;-73
2022/03/31 02:18:28;;;;;;;1.77;0.17;;;;;8.70;100008.00;;;;4995415;28;20209;-74
2022/03/31 02:20:55;;;;;;;0.63;0.47;;;;;8.70;99991.00;;;;4977983;28;20872;-74
2022/03/31 02:23:23;;;;;;;0.30;0.10;;;;;8.70;100002.00;;;;4979835;28;20226;-73
2022/03/31 02:25:50;;;;;;;0.25;0.10;;;;;8.60;100004.00;;;;4974984;28;20218;-74
2022/03/31 02:28:18;;;;;;;0.17;0.13;;;;;8.60;100016.00;;;;4971817;28;20193;-74
2022/03/31 02:30:45;;;;;;;0.25;0.20;;;;;8.60;100020.00;;;;4980905;28;20202;-73
2022/03/31 02:33:14;;;;;;;0.38;0.22;;;;;8.50;100015.00;;;;4975705;28;20610;-74
2022/03/31 02:35:41;;;;;;;0.10;0.10;;;;;8.60;100016.00;;;;4975039;28;20190;-74
2022/03/31 02:38:09;;;;;;;0.52;0.13;;;;;8.50;100007.00;;;;4975999;28;20707;-74
2022/03/31 02:40:36;;;;;;;0.65;0.30;;;;;8.50;100002.00;;;;4975267;28;20202;-74
2022/03/31 02:43:04;;;;;;;0.65;0.20;;;;;8.50;99999.00;;;;4975366;28;20760;-74
2022/03/31 02:45:31;;;;;;;0.55;0.22;;;;;8.50;100000.00;;;;4984317;28;20209;-73
2022/03/31 02:47:58;;;;;;;0.35;0.20;;;;;8.50;99987.00;;;;4995360;28;20209;-74
2022/03/31 02:50:27;;;;;;;0.22;0.10;;;;;8.50;99982.00;;;;4977251;28;20194;-74
2022/03/31 02:55:39;;;;;;;1.30;0.30;;;;;8.40;99988.00;;;;4975602;28;20209;-74
2022/03/31 02:58:06;;;;;;;0.47;0.20;;;;;8.40;99985.00;;;;4971822;28;20214;-73
2022/03/31 03:00:36;;;;;;;0.60;0.30;;;;;8.40;99989.00;;;;4966031;28;20218;-74
2022/03/31 03:03:04;;;;;;;0.30;0.20;;;;;8.40;99988.00;;;;4981350;28;20201;-74
2022/03/31 03:05:34;;;;;;;0.55;0.10;;;;;8.40;99980.00;;;;4975108;28;20194;-74
2022/03/31 03:08:02;;;;;;;1.73;0.30;;;;;8.40;99985.00;;;;4975956;28;20253;-74
2022/03/31 03:10:29;;;;;;;0.55;0.30;;;;;8.40;99982.00;;;;4974690;28;20208;-74
2022/03/31 03:12:57;;;;;;;0.40;0.30;;;;;8.40;99981.00;;;;4975409;28;20269;-73
2022/03/31 03:15:26;;;;;;;0.60;0.25;;;;;8.40;99981.00;;;;4974662;28;20246;-74
2022/03/31 03:17:53;;;;;;;1.02;0.20;;;;;8.40;99981.00;;;;4974974;28;20277;-74
2022/03/31 03:20:24;;;;;;;0.20;0.13;;;;;8.40;99989.00;;;;4974774;28;20254;-73
2022/03/31 03:22:54;;;;;;;0.40;0.25;;;;;8.40;99984.00;;;;4976107;28;21099;-74
2022/03/31 03:25:23;;;;;;;0.40;0.30;;;;;8.40;99985.00;;;;4972069;28;20280;-74
2022/03/31 03:27:51;;;;;;;0.70;0.40;;;;;8.40;99990.00;;;;4971178;28;20337;-74
2022/03/31 03:30:20;;;;;;;0.60;0.35;;;;;8.40;99989.00;;;;4971270;28;20581;-73
2022/03/31 03:32:48;;;;;;;0.52;0.40;;;;;8.30;99977.00;;;;4962987;28;20191;-74
2022/03/31 03:35:16;;;;;;;0.25;0.20;;;;;8.30;99974.00;;;;4978875;28;20214;-74
2022/03/31 03:37:44;;;;;;;0.50;0.38;;;;;8.30;99962.00;;;;4989825;28;20216;-74
2022/03/31 03:40:15;;;;;;;0.43;0.30;;;;;8.20;99962.00;;;;4991447;28;20190;-74
2022/03/31 03:42:42;;;;;;;0.40;0.20;;;;;8.20;99970.00;;;;4989943;28;20205;-74
2022/03/31 03:45:11;;;;;;;0.60;0.40;;;;;8.20;99970.00;;;;4972050;28;20209;-73
2022/03/31 03:47:39;;;;;;;0.43;0.30;;;;;8.20;99961.00;;;;4971629;28;20354;-74
2022/03/31 03:50:07;;;;;;;0.50;0.38;;;;;8.10;99968.00;;;;4971883;28;20261;-73
2022/03/31 03:52:34;;;;;;;0.40;0.35;;;;;8.10;99967.00;;;;4971742;28;20198;-74
2022/03/31 03:55:02;;;;;;;0.30;0.20;;;;;8.10;99972.00;;;;4991064;28;20221;-74
2022/03/31 03:57:31;;;;;;;0.73;0.52;;;;;8.00;99968.00;;;;4990579;28;20244;-74
2022/03/31 03:59:59;;;;;;;0.35;0.25;;;;;8.00;99968.00;;;;4972089;28;20202;-74
2022/03/31 04:02:26;;;;;;;1.02;0.30;;;;;8.00;99962.00;;;;4971682;28;20213;-74
2022/03/31 04:04:53;;;;;;;0.20;0.10;;;;;8.00;99967.00;;;;4971822;28;20261;-74
2022/03/31 04:07:21;;;;;;;0.55;0.30;;;;;8.00;99956.00;;;;4971444;28;20304;-74
2022/03/31 04:09:48;;;;;;;0.40;0.30;;;;;8.00;99964.00;;;;4974417;28;20209;-74
2022/03/31 04:12:15;;;;;;;0.50;0.35;;;;;8.00;99961.00;;;;4989178;28;20611;-73
2022/03/31 04:14:44;;;;;;;0.45;0.20;;;;;7.90;99957.00;;;;4971064;28;20370;-74
2022/03/31 04:17:11;;;;;;;0.80;0.43;;;;;7.90;99950.00;;;;4969912;28;20230;-74
2022/03/31 04:19:38;;;;;;;0.60;0.30;;;;;8.00;99962.00;;;;4971600;28;20209;-74
2022/03/31 04:22:06;;;;;;;0.60;0.30;;;;;7.90;99948.00;;;;4973196;28;20194;-73
2022/03/31 04:24:33;;;;;;;1.45;0.50;;;;;7.90;99948.00;;;;4970464;28;20587;-74
2022/03/31 04:27:00;;;;;;;0.35;0.25;;;;;7.90;99944.00;;;;4975700;28;20225;-74
2022/03/31 04:29:27;;;;;;;0.50;0.38;;;;;7.90;99945.00;;;;4991060;28;20201;-74
2022/03/31 04:31:56;;;;;;;0.70;0.38;;;;;7.90;99949.00;;;;4977069;28;20206;-74
2022/03/31 04:34:23;;;;;;;0.63;0.30;;;;;7.90;99950.00;;;;4970830;28;20201;-74
2022/03/31 04:36:51;;;;;;;0.82;0.60;;;;;7.90;99944.00;;;;4970341;28;20209;-74
2022/03/31 04:39:18;;;;;;;0.43;0.38;;;;;7.90;99948.00;;;;4971342;28;20194;-74
2022/03/31 04:41:45;;;;;;;0.82;0.40;;;;;7.90;99946.00;;;;4970657;28;20198;-73
2022/03/31 04:44:12;;;;;;;0.40;0.30;;;;;7.90;99958.00;;;;4972009;28;20628;-73
2022/03/31 04:46:40;;;;;;;0.40;0.40;;;;;8.00;99961.00;;;;4972313;28;20233;-74
2022/03/31 04:49:09;;;;;;;0.50;0.40;;;;;7.90;99962.00;;;;4970860;28;20257;-74
2022/03/31 04:51:36;;;;;;;0.80;0.43;;;;;8.00;99966.00;;;;4970679;28;20206;-74
2022/03/31 04:54:03;;;;;;;0.68;0.38;;;;;8.00;99969.00;;;;4970380;28;20202;-74
2022/03/31 04:56:31;;;;;;;0.57;0.20;;;;;8.00;99968.00;;;;4970480;28;20207;-74
2022/03/31 04:58:59;;;;;;;0.77;0.45;;;;;8.10;99974.00;;;;4971052;28;20758;-74
2022/03/31 05:01:26;;;;;;;0.45;0.30;;;;;8.10;99969.00;;;;4973486;28;20205;-73
2022/03/31 05:03:54;;;;;;;0.82;0.35;;;;;8.10;99964.00;;;;4970520;28;20202;-73
2022/03/31 05:06:23;;;;;;;0.82;0.45;;;;;8.10;99962.00;;;;4968856;28;20298;-74
2022/03/31 05:08:50;;;;;;;0.95;0.25;;;;;8.10;99969.00;;;;4968822;28;20577;-73
2022/03/31 05:11:18;;;;;;;1.33;0.45;;;;;8.10;99964.00;;;;4969870;28;20688;-73
2022/03/31 05:13:45;;;;;;;2.15;0.40;;;;;8.10;99968.00;;;;4969631;28;20723;-74
2022/03/31 05:16:12;;;;;;;0.60;0.32;;;;;8.10;99972.00;;;;4969529;28;20226;-74
2022/03/31 05:18:40;;;;;;;1.58;0.30;;;;;8.20;99972.00;;;;4978767;28;20637;-73
2022/03/31 05:21:07;;;;;;;1.48;0.40;;;;;8.20;99964.00;;;;4970351;28;20209;-74
2022/03/31 05:23:36;;;;;;;0.68;0.40;;;;;8.20;99973.00;;;;4981243;28;20198;-73
2022/03/31 05:26:03;;;;;;;0.52;0.43;;;;;8.20;99971.00;;;;4969555;28;20727;-74
2022/03/31 05:28:31;;;;;;;0.47;0.20;;;;;8.20;99974.00;;;;4968365;28;20280;-74
2022/03/31 05:30:58;;;;;;;1.50;0.43;;;;;8.20;99972.00;;;;4969698;28;20642;-74
2022/03/31 05:33:25;;;;;;;1.25;0.22;;;;;8.20;99970.00;;;;4968354;28;20241;-74
2022/03/31 05:35:53;;;;;;;0.70;0.30;;;;;8.20;99973.00;;;;4973465;28;20225;-73
2022/03/31 05:38:20;;;;;;;0.50;0.38;;;;;8.20;99975.00;;;;4967795;28;20205;-72
2022/03/31 05:40:48;;;;;;;0.50;0.30;;;;;8.20;99967.00;;;;4968795;28;20198;-74
2022/03/31 05:43:16;;;;;;;1.35;0.45;;;;;8.30;99968.00;;;;4968169;28;20990;-74
2022/03/31 05:45:43;;;;;;;0.60;0.30;;;;;8.30;99972.00;;;;4969602;28;20257;-73
2022/03/31 05:48:10;;;;;;;3.53;0.57;;;;;8.30;99967.00;;;;4969071;28;20748;-74
2022/03/31 05:50:38;;;;;;;0.68;0.50;;;;;8.30;99960.00;;;;4967982;28;20194;-74
2022/03/31 05:53:05;;;;;;;0.60;0.43;;;;;8.30;99959.00;;;;4979724;28;20190;-75
2022/03/31 05:55:32;;;;;;;1.10;0.70;;;;;8.30;99954.00;;;;4966844;28;20905;-75
2022/03/31 05:58:01;;;;;;;1.40;0.70;;;;;8.30;99950.00;;;;4958165;28;20807;-75
2022/03/31 06:00:28;;;;;;;3.65;0.50;;;;;8.30;99939.00;;;;4966620;28;20218;-74
2022/03/31 06:02:55;;;;;;;0.70;0.45;;;;;8.30;99952.00;;;;4967935;28;20707;-74
2022/03/31 06:05:23;;;;;;;1.02;0.68;;;;;8.30;99950.00;;;;4970886;28;20207;-74
2022/03/31 06:07:51;;;;;;;0.88;0.77;;;;;8.30;99953.00;;;;4969026;28;20226;-76
2022/03/31 06:10:18;;;;;;;1.30;0.82;;;;;8.30;99947.00;;;;4970299;28;20194;-75
2022/03/31 06:12:46;;;;;;;0.80;0.70;;;;;8.30;99949.00;;;;4970790;28;20594;-75
2022/03/31 06:15:15;;;;;;;0.65;0.45;;;;;8.30;99946.00;;;;4969632;28;20233;-75
2022/03/31 06:17:44;;;;;;;1.60;0.70;;;;;8.40;99939.00;;;;4981054;28;20237;-75
2022/03/31 06:20:13;;;;;;;1.10;0.70;;;;;8.40;99941.00;;;;4969710;28;20208;-74
2022/03/31 06:22:40;;;;;;;1.13;0.75;;;;;8.40;99942.00;;;;4968451;28;20653;-75
2022/03/31 06:25:10;;;;;;;1.00;0.52;;;;;8.40;99947.00;;;;4968744;28;20599;-75
2022/03/31 06:27:38;;;;;;;0.80;0.70;;;;;8.40;99943.00;;;;4965875;28;20727;-75
2022/03/31 06:30:06;;;;;;;0.95;0.70;;;;;8.40;99947.00;;;;4969834;28;20597;-75
2022/03/31 06:32:35;;;;;;;0.88;0.70;;;;;8.50;99939.00;;;;4968952;28;20209;-75
2022/03/31 06:35:03;;;;;;;1.33;0.70;;;;;8.50;99949.00;;;;4968922;28;20209;-74
2022/03/31 06:37:30;;;;;;;1.63;0.77;;;;;8.50;99944.00;;;;4969416;28;20202;-74
2022/03/31 06:39:57;;;;;;;0.98;0.50;;;;;8.50;99937.00;;;;4968568;28;20202;-75
2022/03/31 06:42:24;;;;;;;0.82;0.70;;;;;8.60;99942.00;;;;4969017;28;20628;-75
2022/03/31 06:44:52;;;;;;;1.42;0.82;;;;;8.60;99944.00;;;;4972272;28;21130;-74
2022/03/31 06:47:19;;;;;;;1.42;0.90;;;;;8.60;99953.00;;;;4967675;28;20237;-75
2022/03/31 06:49:48;;;;;;;1.27;0.77;;;;;8.60;99939.00;;;;4969371;28;20740;-75
2022/03/31 06:52:15;;;;;;;1.73;0.75;;;;;8.70;99938.00;;;;4966964;28;20700;-75
2022/03/31 06:54:42;;;;;;;3.78;1.00;;;;;8.70;99932.00;;;;4970116;28;20206;-75
2022/03/31 06:57:10;;;;;;;1.50;0.50;;;;;8.70;99939.00;;;;4973003;28;20221;-74
2022/03/31 06:59:37;;;;;;;1.33;0.80;;;;;8.80;99943.00;;;;4973957;28;20206;-75
2022/03/31 07:02:04;;;;;;;2.47;0.73;;;;;8.80;99937.00;;;;4972273;28;20210;-74
2022/03/31 07:04:31;;;;;;;3.85;1.30;;;;;8.80;99940.00;;;;4971112;28;20198;-75
2022/03/31 07:07:00;;;;;;;1.05;0.82;;;;;8.80;99938.00;;;;4980170;28;20203;-75
2022/03/31 07:09:28;;;;;;;5.88;1.25;;;;;8.90;99928.00;;;;4971770;28;20273;-75
2022/03/31 07:11:56;;;;;;;1.85;0.90;;;;;9.00;99932.00;;;;4974232;28;20206;-76
2022/03/31 07:14:24;;;;;;;0.90;0.60;;;;;9.00;99937.00;;;;4974442;28;20225;-76
2022/03/31 07:16:52;;;;;;;4.00;0.95;;;;;9.00;99940.00;;;;4978152;28;20288;-76
2022/03/31 07:19:19;;;;;;;2.35;1.08;;;;;9.00;99941.00;;;;4976260;28;20684;-76
2022/03/31 07:21:48;;;;;;;1.33;0.70;;;;;9.10;99941.00;;;;4975683;28;20218;-76
2022/03/31 07:24:17;;;;;;;3.08;1.35;;;;;9.10;99939.00;;;;4974965;28;20249;-75
2022/03/31 07:26:44;;;;;;;1.77;0.90;;;;;9.20;99934.00;;;;4975766;28;20202;-76
2022/03/31 07:29:12;;;;;;;1.00;0.70;;;;;9.20;99943.00;;;;4975323;28;20226;-76
2022/03/31 07:31:39;;;;;;;1.50;1.00;;;;;9.30;99934.00;;;;4974157;28;20210;-75
2022/03/31 07:34:07;;;;;;;1.67;0.77;;;;;9.30;99931.00;;;;4979340;28;20232;-76
2022/03/31 07:36:34;;;;;;;2.88;0.80;;;;;9.40;99940.00;;;;4972846;28;20205;-75
2022/03/31 07:39:01;;;;;;;2.60;1.20;;;;;9.40;99943.00;;;;4973820;28;20198;-75
2022/03/31 07:41:30;;;;;;;3.92;1.30;;;;;9.40;99941.00;;;;4970765;28;20210;-75
2022/03/31 07:43:57;;;;;;;1.77;1.00;;;;;9.40;99951.00;;;;4973615;28;20207;-75
2022/03/31 07:46:25;;;;;;;1.00;0.57;;;;;9.50;99935.00;;;;4973137;28;20363;-75
2022/03/31 07:48:52;;;;;;;2.60;0.90;;;;;9.50;99940.00;;;;4973429;28;20242;-75
2022/03/31 07:51:19;;;;;;;2.35;0.90;;;;;9.60;99932.00;;;;4980402;28;20256;-75
2022/03/31 07:53:46;;;;;;;1.52;0.85;;;;;9.60;99923.00;;;;4978409;28;20209;-75
2022/03/31 07:56:15;;;;;;;1.75;0.80;;;;;9.70;99927.00;;;;4978063;28;20199;-75
2022/03/31 07:58:43;;;;;;;2.33;1.10;;;;;9.70;99921.00;;;;4973596;28;20308;-75
2022/03/31 08:01:11;;;;;;;0.82;0.77;;;;;9.80;99920.00;;;;4973329;28;20709;-75
2022/03/31 08:03:38;;;;;;;1.33;0.90;;;;;9.80;99915.00;;;;4973276;28;20202;-75
2022/03/31 08:06:08;;;;;;;1.40;0.90;;;;;9.90;99914.00;;;;4972711;28;20194;-75
2022/03/31 08:08:38;;;;;;;0.88;0.80;;;;;10.00;99914.00;;;;4973074;28;20696;-75
2022/03/31 08:11:05;;;;;;;1.40;0.88;;;;;10.10;99919.00;;;;4972484;28;20285;-75
2022/03/31 08:13:32;;;;;;;1.00;0.70;;;;;10.20;99924.00;;;;4967470;28;20241;-75
2022/03/31 08:16:01;;;;;;;2.30;0.70;;;;;10.20;99929.00;;;;4972841;28;20234;-75
2022/03/31 08:18:31;;;;;;;2.08;1.20;;;;;10.30;99933.00;;;;4972186;28;20217;-75
2022/03/31 08:20:59;;;;;;;1.55;0.80;;;;;10.30;99933.00;;;;4953885;29;20199;-75
2022/03/31 08:23:27;;;;;;;2.78;0.93;;;;;10.40;99932.00;;;;4953862;29;20199;-75
2022/03/31 08:25:55;;;;;;;1.30;1.00;;;;;10.50;99927.00;;;;4977078;28;20213;-75
2022/03/31 08:28:25;;;;;;;1.20;1.08;;;;;10.50;99933.00;;;;4992607;28;20303;-75
2022/03/31 08:30:52;;;;;;;1.38;0.93;;;;;10.60;99928.00;;;;4992018;28;20210;-75
2022/03/31 08:33:21;;;;;;;1.13;0.80;;;;;10.70;99927.00;;;;4991500;28;20221;-75
2022/03/31 08:35:48;;;;;;;1.08;0.88;;;;;10.80;99923.00;;;;4970942;28;20202;-75
2022/03/31 08:38:15;;;;;;;3.38;1.40;;;;;10.90;99927.00;;;;4971907;28;20210;-75
2022/03/31 08:40:44;;;;;;;1.58;1.15;;;;;10.90;99926.00;;;;4972139;28;20265;-76
2022/03/31 08:43:11;;;;;;;1.40;1.15;;;;;10.90;99926.00;;;;4985300;28;20607;-75
2022/03/31 08:45:41;;;;;;;1.40;1.08;;;;;11.00;99929.00;;;;4991371;28;20255;-76
2022/03/31 08:48:09;;;;;;;1.42;1.25;;;;;11.00;99923.00;;;;4985485;28;20601;-76
2022/03/31 08:50:38;;;;;;;1.85;1.27;;;;;11.10;99918.00;;;;4972628;28;20203;-75
2022/03/31 08:53:05;;;;;;;1.88;1.23;;;;;11.10;99926.00;;;;4972696;28;20210;-75
2022/03/31 08:55:33;;;;;;;2.00;1.50;;;;;11.20;99930.00;;;;4972177;28;20206;-75
2022/03/31 08:58:01;;;;;;;1.55;1.25;;;;;11.20;99932.00;;;;4972903;28;20268;-75
2022/03/31 09:00:29;;;;;;;1.27;1.02;;;;;11.30;99928.00;;;;4976293;28;20206;-76
2022/03/31 09:02:59;;;;;;;1.23;1.00;;;;;11.30;99931.00;;;;4971904;28;20202;-75
2022/03/31 09:05:27;;;;;;;1.40;1.13;;;;;11.30;99934.00;;;;4977295;28;20225;-75
2022/03/31 09:07:59;;;;;;;2.17;1.67;;;;;11.30;99924.00;;;;4991376;28;21093;-75
2022/03/31 09:10:32;;;;;;;2.17;1.52;;;;;11.30;99928.00;;;;4971894;28;20312;-76
2022/03/31 09:13:01;;;;;;;2.13;1.50;;;;;11.40;99932.00;;;;4972739;28;20561;-75
2022/03/31 09:15:29;;;;;;;2.72;1.58;;;;;11.40;99934.00;;;;4971287;28;20301;-76
2022/03/31 09:17:57;;;;;;;2.30;1.50;;;;;11.40;99926.00;;;;4990418;28;20220;-75
2022/03/31 09:20:35;;;;;;;1.77;1.20;;;;;11.40;99929.00;;;;4979097;28;20217;-75
2022/03/31 09:23:03;;;;;;;1.50;1.13;;;;;11.50;99933.00;;;;4969081;28;20261;-75
2022/03/31 09:25:32;;;;;;;2.20;1.70;;;;;11.50;99937.00;;;;4972103;28;20210;-75
2022/03/31 09:28:01;;;;;;;2.17;1.35;;;;;11.60;99936.00;;;;4972384;28;20710;-75
2022/03/31 09:30:31;;;;;;;1.50;1.23;;;;;11.60;99932.00;;;;4972197;28;20206;-76
2022/03/31 09:33:02;;;;;;;3.88;1.80;;;;;11.60;99935.00;;;;4976238;28;20716;-75
2022/03/31 09:35:30;;;;;;;3.40;1.23;;;;;11.60;99934.00;;;;4976904;28;20206;-76
2022/03/31 09:37:58;;;;;;;2.33;1.80;;;;;11.70;99929.00;;;;4971483;28;20217;-76
2022/03/31 09:40:37;;;;;;;2.20;1.75;;;;;11.60;99932.00;;;;4972054;28;20202;-76
2022/03/31 09:43:04;;;;;;;2.67;1.67;;;;;11.70;99929.00;;;;4972623;28;20201;-75
2022/03/31 09:45:39;;;;;;;3.75;1.90;;;;;11.60;99926.00;;;;4972715;28;20202;-75
2022/03/31 09:48:17;;;;;;;2.40;2.00;;;;;11.70;99927.00;;;;4971143;28;20706;-75
2022/03/31 09:50:44;;;;;;;2.72;1.92;;;;;11.70;99926.00;;;;4973818;28;20205;-75
2022/03/31 09:53:13;;;;;;;2.85;1.95;;;;;11.80;99930.00;;;;4990652;28;20193;-76
2022/03/31 09:55:43;;;;;;;2.92;2.00;;;;;11.80;99926.00;;;;4971988;28;20202;-75
2022/03/31 09:58:17;;;;;;;1.88;1.77;;;;;11.80;99924.00;;;;4971296;28;20202;-76
2022/03/31 10:00:45;;;;;;;5.63;2.35;;;;;11.80;99926.00;;;;4971025;28;20289;-76
2022/03/31 10:03:15;;;;;;;2.20;2.00;;;;;11.80;99922.00;;;;4971818;28;20198;-76
2022/03/31 10:05:45;;;;;;;2.42;2.05;;;;;11.90;99931.00;;;;4982246;28;20196;-76
2022/03/31 10:08:13;;;;;;;2.55;2.25;;;;;12.00;99929.00;;;;4992249;28;20700;-76
2022/03/31 10:10:43;;;;;;;2.47;2.10;;;;;11.90;99926.00;;;;4971728;28;20194;-76
2022/03/31 10:13:18;;;;;;;4.25;2.58;;;;;11.90;99930.00;;;;4972603;28;20212;-76
2022/03/31 10:15:46;;;;;;;3.45;2.40;;;;;12.00;99925.00;;;;4975649;28;20242;-75
2022/03/31 10:18:15;;;;;;;2.67;2.40;;;;;12.00;99924.00;;;;4976173;28;20544;-76
2022/03/31 10:20:54;;;;;;;3.50;2.72;;;;;12.00;99928.00;;;;4977423;28;20224;-76
2022/03/31 10:26:07;;;;;;;2.75;1.92;;;;;12.10;99927.00;;;;4955745;29;20218;-76
2022/03/31 10:28:35;;;;;;;3.28;2.65;;;;;12.20;99929.00;;;;4954367;28;20262;-76
2022/03/31 10:31:04;;;;;;;3.90;2.75;;;;;12.20;99926.00;;;;4958801;28;20206;-76
2022/03/31 10:33:34;;;;;;;2.45;2.20;;;;;12.20;99917.00;;;;4962527;28;20265;-76
2022/03/31 10:36:10;;;;;;;2.50;2.00;;;;;12.30;99920.00;;;;4971418;28;20205;-76
2022/03/31 10:38:38;;;;;;;3.97;2.55;;;;;12.30;99919.00;;;;4974601;28;20685;-76
2022/03/31 10:41:08;;;;;;;3.83;2.67;;;;;12.30;99919.00;;;;4981614;28;20205;-76
2022/03/31 10:43:40;;;;;;;3.65;2.25;;;;;12.30;99916.00;;;;4994889;28;20640;-76
2022/03/31 10:46:16;;;;;;;4.18;2.75;;;;;12.30;99911.00;;;;4995530;28;20221;-75
2022/03/31 10:48:50;;;;;;;4.22;2.35;;;;;12.40;99912.00;;;;4974284;28;20226;-76
2022/03/31 10:51:18;;;;;;;3.85;2.55;;;;;12.40;99919.00;;;;4973763;28;20229;-76
2022/03/31 10:53:51;;;;;;;2.90;2.13;;;;;12.40;99911.00;;;;4974501;28;20202;-76
2022/03/31 10:56:24;;;;;;;3.55;2.67;;;;;12.40;99910.00;;;;4973361;28;20289;-76
2022/03/31 10:58:53;;;;;;;3.33;2.50;;;;;12.50;99906.00;;;;4985143;28;20209;-76
2022/03/31 11:01:21;;;;;;;3.28;2.22;;;;;12.50;99906.00;;;;4988686;28;20285;-76
2022/03/31 11:03:51;;;;;;;2.67;1.98;;;;;12.50;99908.00;;;;4973284;28;20198;-76
2022/03/31 11:06:19;;;;;;;3.28;2.22;;;;;12.60;99908.00;;;;4987085;28;20193;-76
2022/03/31 11:08:48;;;;;;;3.58;2.30;;;;;12.60;99905.00;;;;4987091;28;20229;-76
2022/03/31 11:11:25;;;;;;;2.40;1.88;;;;;12.50;99900.00;;;;4973345;28;20745;-76
2022/03/31 11:13:55;;;;;;;1.98;1.40;;;;;12.50;99901.00;;;;4974014;28;20202;-76
2022/03/31 11:16:23;;;;;;;1.80;1.38;;;;;12.50;99905.00;;;;4988840;28;20240;-76
2022/03/31 11:18:55;;;;;;;1.33;1.20;;;;;12.50;99900.00;;;;4994286;28;20213;-76
2022/03/31 11:21:22;;;;;;;1.60;1.50;;;;;12.50;99894.00;;;;4982266;28;20206;-76
2022/03/31 11:23:50;;;;;;;1.80;1.27;;;;;12.40;99895.00;;;;4973962;28;20206;-76
2022/03/31 11:26:26;;;;;;;1.92;1.60;;;;;12.40;99902.00;;;;4973424;28;20226;-76
2022/03/31 11:28:54;;;;;;;1.48;1.23;;;;;12.40;99894.00;;;;4976637;28;20646;-76
2022/03/31 11:31:21;;;;;;;1.75;1.40;;;;;12.40;99890.00;;;;4976476;28;20206;-76
2022/03/31 11:33:49;;;;;;;1.98;1.63;;;;;12.40;99889.00;;;;4986485;28;20203;-76
2022/03/31 11:36:18;;;;;;;1.73;1.42;;;;;12.40;99887.00;;;;4967687;28;20202;-76
2022/03/31 11:38:55;;;;;;;1.65;1.55;;;;;12.40;99889.00;;;;4971378;28;20210;-76
2022/03/31 11:41:23;;;;;;;1.85;1.58;;;;;12.50;99884.00;;;;4971191;28;20245;-76
2022/03/31 11:43:56;;;;;;;1.83;1.52;;;;;12.50;99878.00;;;;4964279;28;20199;-76
2022/03/31 11:46:23;;;;;;;1.48;1.38;;;;;12.60;99888.00;;;;4967960;28;20232;-76
2022/03/31 11:48:52;;;;;;;1.50;1.25;;;;;12.60;99882.00;;;;4973094;28;20754;-76
2022/03/31 11:51:19;;;;;;;1.58;1.23;;;;;12.60;99875.00;;;;4971298;28;20292;-76
2022/03/31 11:53:48;;;;;;;1.90;1.60;;;;;12.60;99878.00;;;;4972004;28;20198;-76
2022/03/31 11:56:21;;;;;;;1.33;1.00;;;;;12.60;99879.00;;;;4972017;28;20715;-76
2022/03/31 11:58:52;;;;;;;1.20;1.00;;;;;12.60;99888.00;;;;4972733;28;20297;-76
2022/03/31 12:01:22;;;;;;;1.38;1.20;;;;;12.60;99886.00;;;;4971624;28;20230;-76
2022/03/31 12:03:50;;;;;;;1.55;1.15;;;;;12.70;99879.00;;;;4971689;28;20202;-76
2022/03/31 12:06:17;;;;;;;1.40;0.98;;;;;12.70;99874.00;;;;4977529;28;21044;-76
2022/03/31 12:08:46;;;;;;;1.45;1.15;;;;;12.70;99874.00;;;;4989234;28;20580;-76
2022/03/31 12:11:14;;;;;;;1.60;1.10;;;;;12.70;99877.00;;;;4970896;28;20695;-76
2022/03/31 12:13:49;;;;;;;1.30;1.10;;;;;12.70;99886.00;;;;4971797;28;20228;-77
2022/03/31 12:16:20;;;;;;;1.45;1.05;;;;;12.80;99881.00;;;;4971172;28;20249;-77
2022/03/31 12:18:54;;;;;;;1.30;1.20;;;;;12.70;99876.00;;;;4971188;28;20212;-75
2022/03/31 12:21:23;;;;;;;1.10;0.95;;;;;12.80;99879.00;;;;4971258;28;20198;-75
2022/03/31 12:23:51;;;;;;;1.00;0.90;;;;;12.80;99869.00;;;;4980385;28;20205;-74
2022/03/31 12:26:22;;;;;;;1.13;1.02;;;;;12.90;99871.00;;;;4971876;28;20198;-75
2022/03/31 12:28:50;;;;;;;0.82;0.68;;;;;12.90;99870.00;;;;4972226;28;20210;-77
2022/03/31 12:31:23;;;;;;;0.95;0.85;;;;;12.90;99871.00;;;;4972474;28;20206;-77
2022/03/31 12:33:52;;;;;;;1.10;1.00;;;;;12.90;99870.00;;;;4973018;28;20202;-77
2022/03/31 12:36:25;;;;;;;0.95;0.85;;;;;12.90;99874.00;;;;4974249;28;20198;-74
2022/03/31 12:38:55;;;;;;;1.05;0.90;;;;;12.90;99866.00;;;;4973530;28;20202;-74
2022/03/31 12:41:23;;;;;;;1.98;0.98;;;;;12.90;99874.00;;;;4987708;28;20296;-74
2022/03/31 12:44:04;;;;;;;1.90;0.90;;;;;12.80;99877.00;;;;4990529;28;20205;-77
2022/03/31 12:46:35;;;;;;;1.48;1.02;;;;;12.90;99887.00;;;;4990091;28;20194;-75